sensor_id;sensor_type;location;lat;lon;timestamp;P1;durP1;ratioP1;P2;durP2;ratioP2
71080;SDS011;58740;50.672;18.690;2024-03-22T00:02:00;31.60;;;17.10;;
71080;SDS011;58740;50.672;18.690;2024-03-22T00:04:32;30.00;;;16.60;;
71080;SDS011;58740;50.672;18.690;2024-03-22T00:07:05;29.30;;;16.90;;
71080;SDS011;58740;50.672;18.690;2024-03-22T00:09:37;29.90;;;16.70;;
71080;SDS011;58740;50.672;18.690;2024-03-22T00:12:10;28.00;;;15.90;;
71080;SDS011;58740;50.672;18.690;2024-03-22T00:14:43;30.40;;;15.70;;
71080;SDS011;58740;50.672;18.690;2024-03-22T00:17:15;29.60;;;16.20;;
71080;SDS011;58740;50.672;18.690;2024-03-22T00:19:48;26.30;;;18.00;;
71080;SDS011;58740;50.672;18.690;2024-03-22T00:22:20;30.50;;;16.30;;
71080;SDS011;58740;50.672;18.690;2024-03-22T00:24:53;32.30;;;16.00;;
71080;SDS011;58740;50.672;18.690;2024-03-22T00:27:25;27.50;;;16.10;;
71080;SDS011;58740;50.672;18.690;2024-03-22T00:29:58;32.70;;;17.70;;
71080;SDS011;58740;50.672;18.690;2024-03-22T00:32:31;31.50;;;17.00;;
71080;SDS011;58740;50.672;18.690;2024-03-22T00:35:04;33.00;;;19.00;;
71080;SDS011;58740;50.672;18.690;2024-03-22T00:37:37;31.40;;;19.50;;
71080;SDS011;58740;50.672;18.690;2024-03-22T00:40:12;33.50;;;18.30;;
71080;SDS011;58740;50.672;18.690;2024-03-22T00:42:44;42.60;;;19.40;;
71080;SDS011;58740;50.672;18.690;2024-03-22T00:45:17;36.20;;;21.10;;
71080;SDS011;58740;50.672;18.690;2024-03-22T00:47:49;35.80;;;20.80;;
71080;SDS011;58740;50.672;18.690;2024-03-22T00:50:22;33.20;;;19.10;;
71080;SDS011;58740;50.672;18.690;2024-03-22T00:52:55;33.70;;;21.80;;
71080;SDS011;58740;50.672;18.690;2024-03-22T00:55:28;35.10;;;21.30;;
71080;SDS011;58740;50.672;18.690;2024-03-22T00:58:00;38.90;;;22.20;;
71080;SDS011;58740;50.672;18.690;2024-03-22T01:00:33;37.20;;;23.30;;
71080;SDS011;58740;50.672;18.690;2024-03-22T01:03:06;34.80;;;20.20;;
71080;SDS011;58740;50.672;18.690;2024-03-22T01:05:39;39.70;;;21.10;;
71080;SDS011;58740;50.672;18.690;2024-03-22T01:08:12;35.80;;;20.70;;
71080;SDS011;58740;50.672;18.690;2024-03-22T01:10:45;45.50;;;21.70;;
71080;SDS011;58740;50.672;18.690;2024-03-22T01:13:17;41.80;;;22.20;;
71080;SDS011;58740;50.672;18.690;2024-03-22T01:15:50;41.70;;;21.60;;
71080;SDS011;58740;50.672;18.690;2024-03-22T01:18:23;37.60;;;19.80;;
71080;SDS011;58740;50.672;18.690;2024-03-22T01:20:55;46.90;;;22.40;;
71080;SDS011;58740;50.672;18.690;2024-03-22T01:23:28;38.30;;;19.40;;
71080;SDS011;58740;50.672;18.690;2024-03-22T01:26:01;38.40;;;20.30;;
71080;SDS011;58740;50.672;18.690;2024-03-22T01:28:33;32.30;;;18.00;;
71080;SDS011;58740;50.672;18.690;2024-03-22T01:31:06;30.40;;;17.30;;
71080;SDS011;58740;50.672;18.690;2024-03-22T01:33:39;26.20;;;15.50;;
71080;SDS011;58740;50.672;18.690;2024-03-22T01:36:11;20.90;;;12.60;;
71080;SDS011;58740;50.672;18.690;2024-03-22T01:38:44;23.90;;;14.20;;
71080;SDS011;58740;50.672;18.690;2024-03-22T01:41:16;18.10;;;11.80;;
71080;SDS011;58740;50.672;18.690;2024-03-22T01:43:49;22.00;;;12.50;;
71080;SDS011;58740;50.672;18.690;2024-03-22T01:46:21;20.20;;;11.30;;
71080;SDS011;58740;50.672;18.690;2024-03-22T01:48:54;19.00;;;12.20;;
71080;SDS011;58740;50.672;18.690;2024-03-22T01:51:26;20.00;;;11.30;;
71080;SDS011;58740;50.672;18.690;2024-03-22T01:54:01;17.80;;;10.10;;
71080;SDS011;58740;50.672;18.690;2024-03-22T01:56:34;17.10;;;9.90;;
71080;SDS011;58740;50.672;18.690;2024-03-22T01:59:08;19.70;;;11.40;;
71080;SDS011;58740;50.672;18.690;2024-03-22T02:01:41;21.60;;;11.90;;
71080;SDS011;58740;50.672;18.690;2024-03-22T02:04:14;19.80;;;11.60;;
71080;SDS011;58740;50.672;18.690;2024-03-22T02:06:47;16.50;;;10.40;;
71080;SDS011;58740;50.672;18.690;2024-03-22T02:09:19;17.00;;;9.40;;
71080;SDS011;58740;50.672;18.690;2024-03-22T02:11:52;16.10;;;9.40;;
71080;SDS011;58740;50.672;18.690;2024-03-22T02:14:25;16.90;;;10.60;;
71080;SDS011;58740;50.672;18.690;2024-03-22T02:16:57;16.40;;;10.00;;
71080;SDS011;58740;50.672;18.690;2024-03-22T02:19:29;18.50;;;10.30;;
71080;SDS011;58740;50.672;18.690;2024-03-22T02:22:02;16.90;;;8.70;;
71080;SDS011;58740;50.672;18.690;2024-03-22T02:24:35;19.60;;;9.80;;
71080;SDS011;58740;50.672;18.690;2024-03-22T02:27:08;17.70;;;10.50;;
71080;SDS011;58740;50.672;18.690;2024-03-22T02:29:40;21.10;;;12.10;;
71080;SDS011;58740;50.672;18.690;2024-03-22T02:32:13;19.50;;;11.90;;
71080;SDS011;58740;50.672;18.690;2024-03-22T02:34:46;19.20;;;12.00;;
71080;SDS011;58740;50.672;18.690;2024-03-22T02:37:30;20.80;;;12.80;;
71080;SDS011;58740;50.672;18.690;2024-03-22T02:40:03;22.90;;;14.30;;
71080;SDS011;58740;50.672;18.690;2024-03-22T02:42:37;23.30;;;14.90;;
71080;SDS011;58740;50.672;18.690;2024-03-22T02:45:10;23.80;;;14.00;;
71080;SDS011;58740;50.672;18.690;2024-03-22T02:47:43;23.00;;;13.50;;
71080;SDS011;58740;50.672;18.690;2024-03-22T02:50:15;19.40;;;12.80;;
71080;SDS011;58740;50.672;18.690;2024-03-22T02:52:49;20.10;;;12.20;;
71080;SDS011;58740;50.672;18.690;2024-03-22T02:55:21;21.80;;;11.70;;
71080;SDS011;58740;50.672;18.690;2024-03-22T02:57:55;20.60;;;12.10;;
71080;SDS011;58740;50.672;18.690;2024-03-22T03:00:28;21.70;;;12.80;;
71080;SDS011;58740;50.672;18.690;2024-03-22T03:03:01;18.90;;;12.10;;
71080;SDS011;58740;50.672;18.690;2024-03-22T03:05:33;19.40;;;13.00;;
71080;SDS011;58740;50.672;18.690;2024-03-22T03:08:07;21.80;;;14.00;;
71080;SDS011;58740;50.672;18.690;2024-03-22T03:10:39;24.60;;;14.80;;
71080;SDS011;58740;50.672;18.690;2024-03-22T03:13:12;22.70;;;14.20;;
71080;SDS011;58740;50.672;18.690;2024-03-22T03:15:44;23.40;;;13.40;;
71080;SDS011;58740;50.672;18.690;2024-03-22T03:18:17;21.60;;;13.40;;
71080;SDS011;58740;50.672;18.690;2024-03-22T03:20:49;24.40;;;14.00;;
71080;SDS011;58740;50.672;18.690;2024-03-22T03:23:22;27.40;;;14.20;;
71080;SDS011;58740;50.672;18.690;2024-03-22T03:25:54;27.10;;;15.70;;
71080;SDS011;58740;50.672;18.690;2024-03-22T03:28:27;36.80;;;18.30;;
71080;SDS011;58740;50.672;18.690;2024-03-22T03:30:59;32.10;;;17.40;;
71080;SDS011;58740;50.672;18.690;2024-03-22T03:33:32;24.40;;;14.50;;
71080;SDS011;58740;50.672;18.690;2024-03-22T03:36:05;24.90;;;13.30;;
71080;SDS011;58740;50.672;18.690;2024-03-22T03:38:38;18.20;;;12.00;;
71080;SDS011;58740;50.672;18.690;2024-03-22T03:41:11;21.80;;;13.20;;
71080;SDS011;58740;50.672;18.690;2024-03-22T03:43:44;21.30;;;12.40;;
71080;SDS011;58740;50.672;18.690;2024-03-22T03:46:16;20.40;;;13.50;;
71080;SDS011;58740;50.672;18.690;2024-03-22T03:48:49;23.70;;;12.90;;
71080;SDS011;58740;50.672;18.690;2024-03-22T03:51:21;22.50;;;11.90;;
71080;SDS011;58740;50.672;18.690;2024-03-22T03:53:54;23.20;;;12.80;;
71080;SDS011;58740;50.672;18.690;2024-03-22T03:56:26;21.40;;;12.00;;
71080;SDS011;58740;50.672;18.690;2024-03-22T03:58:59;22.20;;;12.30;;
71080;SDS011;58740;50.672;18.690;2024-03-22T04:01:31;24.20;;;13.40;;
71080;SDS011;58740;50.672;18.690;2024-03-22T04:04:04;24.70;;;13.40;;
71080;SDS011;58740;50.672;18.690;2024-03-22T04:06:37;25.10;;;13.60;;
71080;SDS011;58740;50.672;18.690;2024-03-22T04:09:09;27.40;;;15.70;;
71080;SDS011;58740;50.672;18.690;2024-03-22T04:11:42;28.10;;;15.00;;
71080;SDS011;58740;50.672;18.690;2024-03-22T04:14:15;22.20;;;13.10;;
71080;SDS011;58740;50.672;18.690;2024-03-22T04:16:47;24.80;;;14.50;;
71080;SDS011;58740;50.672;18.690;2024-03-22T04:19:20;23.80;;;14.10;;
71080;SDS011;58740;50.672;18.690;2024-03-22T04:21:52;22.40;;;12.30;;
71080;SDS011;58740;50.672;18.690;2024-03-22T04:24:25;23.10;;;12.30;;
71080;SDS011;58740;50.672;18.690;2024-03-22T04:26:57;24.30;;;13.50;;
71080;SDS011;58740;50.672;18.690;2024-03-22T04:29:30;22.40;;;12.90;;
71080;SDS011;58740;50.672;18.690;2024-03-22T04:32:03;22.30;;;12.30;;
71080;SDS011;58740;50.672;18.690;2024-03-22T04:34:36;20.30;;;10.90;;
71080;SDS011;58740;50.672;18.690;2024-03-22T04:37:12;24.30;;;12.80;;
71080;SDS011;58740;50.672;18.690;2024-03-22T04:39:47;24.30;;;12.00;;
71080;SDS011;58740;50.672;18.690;2024-03-22T04:42:19;22.60;;;12.10;;
71080;SDS011;58740;50.672;18.690;2024-03-22T04:44:52;24.20;;;11.50;;
71080;SDS011;58740;50.672;18.690;2024-03-22T04:47:24;22.90;;;11.20;;
71080;SDS011;58740;50.672;18.690;2024-03-22T04:49:57;22.90;;;12.00;;
71080;SDS011;58740;50.672;18.690;2024-03-22T04:52:29;25.50;;;12.30;;
71080;SDS011;58740;50.672;18.690;2024-03-22T04:55:02;21.70;;;11.50;;
71080;SDS011;58740;50.672;18.690;2024-03-22T04:57:35;23.50;;;11.80;;
71080;SDS011;58740;50.672;18.690;2024-03-22T05:00:10;20.30;;;11.00;;
71080;SDS011;58740;50.672;18.690;2024-03-22T05:02:43;23.40;;;11.80;;
71080;SDS011;58740;50.672;18.690;2024-03-22T05:05:16;22.80;;;11.60;;
71080;SDS011;58740;50.672;18.690;2024-03-22T05:07:49;26.40;;;12.10;;
71080;SDS011;58740;50.672;18.690;2024-03-22T05:10:21;24.50;;;11.60;;
71080;SDS011;58740;50.672;18.690;2024-03-22T05:12:53;25.10;;;10.80;;
71080;SDS011;58740;50.672;18.690;2024-03-22T05:15:26;21.40;;;9.80;;
71080;SDS011;58740;50.672;18.690;2024-03-22T05:17:59;19.20;;;10.00;;
71080;SDS011;58740;50.672;18.690;2024-03-22T05:20:32;16.40;;;8.20;;
71080;SDS011;58740;50.672;18.690;2024-03-22T05:23:04;18.10;;;8.70;;
71080;SDS011;58740;50.672;18.690;2024-03-22T05:25:37;15.20;;;7.80;;
71080;SDS011;58740;50.672;18.690;2024-03-22T05:28:09;15.90;;;8.00;;
71080;SDS011;58740;50.672;18.690;2024-03-22T05:30:42;18.90;;;8.50;;
71080;SDS011;58740;50.672;18.690;2024-03-22T05:33:15;19.50;;;8.80;;
71080;SDS011;58740;50.672;18.690;2024-03-22T05:35:48;18.90;;;8.20;;
71080;SDS011;58740;50.672;18.690;2024-03-22T05:38:21;20.50;;;8.80;;
71080;SDS011;58740;50.672;18.690;2024-03-22T05:40:53;19.40;;;8.70;;
71080;SDS011;58740;50.672;18.690;2024-03-22T05:43:26;19.90;;;8.50;;
71080;SDS011;58740;50.672;18.690;2024-03-22T05:45:58;18.40;;;8.00;;
71080;SDS011;58740;50.672;18.690;2024-03-22T05:48:31;17.10;;;7.40;;
71080;SDS011;58740;50.672;18.690;2024-03-22T05:51:04;17.30;;;7.60;;
71080;SDS011;58740;50.672;18.690;2024-03-22T05:53:37;17.30;;;7.90;;
71080;SDS011;58740;50.672;18.690;2024-03-22T05:56:09;16.40;;;7.20;;
71080;SDS011;58740;50.672;18.690;2024-03-22T05:58:42;16.20;;;8.00;;
71080;SDS011;58740;50.672;18.690;2024-03-22T06:01:14;16.00;;;7.20;;
71080;SDS011;58740;50.672;18.690;2024-03-22T06:03:47;15.70;;;7.60;;
71080;SDS011;58740;50.672;18.690;2024-03-22T06:06:19;16.10;;;7.20;;
71080;SDS011;58740;50.672;18.690;2024-03-22T06:08:55;16.60;;;7.50;;
71080;SDS011;58740;50.672;18.690;2024-03-22T06:11:31;16.80;;;8.00;;
71080;SDS011;58740;50.672;18.690;2024-03-22T06:14:03;16.40;;;7.10;;
71080;SDS011;58740;50.672;18.690;2024-03-22T06:16:36;16.50;;;7.10;;
71080;SDS011;58740;50.672;18.690;2024-03-22T06:19:08;18.70;;;9.00;;
71080;SDS011;58740;50.672;18.690;2024-03-22T06:21:41;18.30;;;7.90;;
71080;SDS011;58740;50.672;18.690;2024-03-22T06:24:13;16.80;;;7.40;;
71080;SDS011;58740;50.672;18.690;2024-03-22T06:26:46;16.40;;;8.40;;
71080;SDS011;58740;50.672;18.690;2024-03-22T06:29:19;15.80;;;7.60;;
71080;SDS011;58740;50.672;18.690;2024-03-22T06:31:52;19.30;;;9.80;;
71080;SDS011;58740;50.672;18.690;2024-03-22T06:34:24;14.40;;;8.30;;
71080;SDS011;58740;50.672;18.690;2024-03-22T06:36:57;17.20;;;9.00;;
71080;SDS011;58740;50.672;18.690;2024-03-22T06:39:29;16.70;;;9.10;;
71080;SDS011;58740;50.672;18.690;2024-03-22T06:42:02;19.30;;;9.30;;
71080;SDS011;58740;50.672;18.690;2024-03-22T06:44:35;20.30;;;10.60;;
71080;SDS011;58740;50.672;18.690;2024-03-22T06:47:07;21.70;;;11.00;;
71080;SDS011;58740;50.672;18.690;2024-03-22T06:49:40;19.50;;;10.10;;
71080;SDS011;58740;50.672;18.690;2024-03-22T06:52:12;20.70;;;10.60;;
71080;SDS011;58740;50.672;18.690;2024-03-22T06:54:45;20.40;;;10.20;;
71080;SDS011;58740;50.672;18.690;2024-03-22T06:57:18;20.40;;;10.70;;
71080;SDS011;58740;50.672;18.690;2024-03-22T06:59:50;19.70;;;9.80;;
71080;SDS011;58740;50.672;18.690;2024-03-22T07:02:23;19.40;;;9.60;;
71080;SDS011;58740;50.672;18.690;2024-03-22T07:04:55;18.00;;;9.70;;
71080;SDS011;58740;50.672;18.690;2024-03-22T07:07:28;20.40;;;10.20;;
71080;SDS011;58740;50.672;18.690;2024-03-22T07:10:00;18.10;;;10.40;;
71080;SDS011;58740;50.672;18.690;2024-03-22T07:12:34;21.90;;;11.40;;
71080;SDS011;58740;50.672;18.690;2024-03-22T07:15:09;18.50;;;9.60;;
71080;SDS011;58740;50.672;18.690;2024-03-22T07:17:41;21.30;;;10.50;;
71080;SDS011;58740;50.672;18.690;2024-03-22T07:20:15;21.70;;;10.80;;
71080;SDS011;58740;50.672;18.690;2024-03-22T07:22:51;18.10;;;9.70;;
71080;SDS011;58740;50.672;18.690;2024-03-22T07:25:23;21.90;;;11.60;;
71080;SDS011;58740;50.672;18.690;2024-03-22T07:27:56;21.40;;;9.90;;
71080;SDS011;58740;50.672;18.690;2024-03-22T07:30:29;20.70;;;10.90;;
71080;SDS011;58740;50.672;18.690;2024-03-22T07:33:01;19.80;;;9.80;;
71080;SDS011;58740;50.672;18.690;2024-03-22T07:35:35;19.80;;;10.40;;
71080;SDS011;58740;50.672;18.690;2024-03-22T07:38:08;17.50;;;9.60;;
71080;SDS011;58740;50.672;18.690;2024-03-22T07:40:40;20.20;;;11.20;;
71080;SDS011;58740;50.672;18.690;2024-03-22T07:43:13;20.10;;;10.10;;
71080;SDS011;58740;50.672;18.690;2024-03-22T07:45:46;20.50;;;11.00;;
71080;SDS011;58740;50.672;18.690;2024-03-22T07:48:19;22.90;;;10.60;;
71080;SDS011;58740;50.672;18.690;2024-03-22T07:50:58;17.60;;;9.80;;
71080;SDS011;58740;50.672;18.690;2024-03-22T07:53:32;19.80;;;10.10;;
71080;SDS011;58740;50.672;18.690;2024-03-22T07:56:04;20.50;;;9.70;;
71080;SDS011;58740;50.672;18.690;2024-03-22T07:58:37;19.10;;;9.60;;
71080;SDS011;58740;50.672;18.690;2024-03-22T08:01:10;19.30;;;10.90;;
71080;SDS011;58740;50.672;18.690;2024-03-22T08:03:43;22.40;;;11.10;;
71080;SDS011;58740;50.672;18.690;2024-03-22T08:06:15;21.30;;;11.10;;
71080;SDS011;58740;50.672;18.690;2024-03-22T08:08:49;20.80;;;11.00;;
71080;SDS011;58740;50.672;18.690;2024-03-22T08:11:21;21.40;;;10.70;;
71080;SDS011;58740;50.672;18.690;2024-03-22T08:13:54;18.40;;;10.80;;
71080;SDS011;58740;50.672;18.690;2024-03-22T08:16:32;22.40;;;10.90;;
71080;SDS011;58740;50.672;18.690;2024-03-22T08:19:05;19.50;;;10.30;;
71080;SDS011;58740;50.672;18.690;2024-03-22T08:21:37;19.00;;;10.40;;
71080;SDS011;58740;50.672;18.690;2024-03-22T08:24:10;19.20;;;9.90;;
71080;SDS011;58740;50.672;18.690;2024-03-22T08:26:43;19.80;;;9.80;;
71080;SDS011;58740;50.672;18.690;2024-03-22T08:29:17;20.00;;;9.80;;
71080;SDS011;58740;50.672;18.690;2024-03-22T08:31:49;20.90;;;10.70;;
71080;SDS011;58740;50.672;18.690;2024-03-22T08:34:22;24.60;;;11.20;;
71080;SDS011;58740;50.672;18.690;2024-03-22T08:36:54;25.30;;;13.80;;
71080;SDS011;58740;50.672;18.690;2024-03-22T08:39:27;28.40;;;13.60;;
71080;SDS011;58740;50.672;18.690;2024-03-22T08:41:59;19.10;;;10.80;;
71080;SDS011;58740;50.672;18.690;2024-03-22T08:44:35;21.40;;;10.50;;
71080;SDS011;58740;50.672;18.690;2024-03-22T08:47:08;20.70;;;10.60;;
71080;SDS011;58740;50.672;18.690;2024-03-22T08:49:42;18.70;;;9.90;;
71080;SDS011;58740;50.672;18.690;2024-03-22T08:52:16;20.40;;;10.70;;
71080;SDS011;58740;50.672;18.690;2024-03-22T08:54:49;16.20;;;8.20;;
71080;SDS011;58740;50.672;18.690;2024-03-22T08:57:22;18.40;;;9.10;;
71080;SDS011;58740;50.672;18.690;2024-03-22T08:59:55;17.50;;;9.10;;
71080;SDS011;58740;50.672;18.690;2024-03-22T09:02:27;18.90;;;9.50;;
71080;SDS011;58740;50.672;18.690;2024-03-22T09:05:02;22.90;;;10.40;;
71080;SDS011;58740;50.672;18.690;2024-03-22T09:07:35;15.60;;;9.00;;
71080;SDS011;58740;50.672;18.690;2024-03-22T09:10:09;19.00;;;9.80;;
71080;SDS011;58740;50.672;18.690;2024-03-22T09:12:41;19.00;;;10.00;;
71080;SDS011;58740;50.672;18.690;2024-03-22T09:15:14;19.40;;;9.70;;
71080;SDS011;58740;50.672;18.690;2024-03-22T09:17:46;16.80;;;7.90;;
71080;SDS011;58740;50.672;18.690;2024-03-22T09:20:20;17.40;;;8.20;;
71080;SDS011;58740;50.672;18.690;2024-03-22T09:22:53;18.40;;;9.50;;
71080;SDS011;58740;50.672;18.690;2024-03-22T09:25:27;16.10;;;8.70;;
71080;SDS011;58740;50.672;18.690;2024-03-22T09:27:59;19.80;;;10.50;;
71080;SDS011;58740;50.672;18.690;2024-03-22T09:30:32;16.60;;;8.80;;
71080;SDS011;58740;50.672;18.690;2024-03-22T09:33:15;17.70;;;8.30;;
71080;SDS011;58740;50.672;18.690;2024-03-22T09:35:48;15.20;;;8.60;;
71080;SDS011;58740;50.672;18.690;2024-03-22T09:38:20;16.20;;;8.00;;
71080;SDS011;58740;50.672;18.690;2024-03-22T09:40:53;15.00;;;7.30;;
71080;SDS011;58740;50.672;18.690;2024-03-22T09:43:28;14.20;;;7.40;;
71080;SDS011;58740;50.672;18.690;2024-03-22T09:46:02;15.50;;;6.90;;
71080;SDS011;58740;50.672;18.690;2024-03-22T09:48:36;13.80;;;7.20;;
71080;SDS011;58740;50.672;18.690;2024-03-22T09:51:11;12.60;;;6.30;;
71080;SDS011;58740;50.672;18.690;2024-03-22T09:53:45;17.60;;;7.60;;
71080;SDS011;58740;50.672;18.690;2024-03-22T09:56:24;14.50;;;7.40;;
71080;SDS011;58740;50.672;18.690;2024-03-22T09:58:59;19.50;;;11.50;;
71080;SDS011;58740;50.672;18.690;2024-03-22T10:01:32;16.00;;;8.00;;
71080;SDS011;58740;50.672;18.690;2024-03-22T10:04:05;14.80;;;7.80;;
71080;SDS011;58740;50.672;18.690;2024-03-22T10:06:39;13.40;;;7.40;;
71080;SDS011;58740;50.672;18.690;2024-03-22T10:09:14;14.90;;;8.00;;
71080;SDS011;58740;50.672;18.690;2024-03-22T10:11:48;16.30;;;7.90;;
71080;SDS011;58740;50.672;18.690;2024-03-22T10:14:21;12.10;;;6.80;;
71080;SDS011;58740;50.672;18.690;2024-03-22T10:17:02;11.80;;;6.00;;
71080;SDS011;58740;50.672;18.690;2024-03-22T10:19:35;12.30;;;6.00;;
71080;SDS011;58740;50.672;18.690;2024-03-22T10:22:10;10.60;;;4.90;;
71080;SDS011;58740;50.672;18.690;2024-03-22T10:24:43;11.80;;;5.70;;
71080;SDS011;58740;50.672;18.690;2024-03-22T10:27:16;10.20;;;4.50;;
71080;SDS011;58740;50.672;18.690;2024-03-22T10:29:49;11.30;;;4.90;;
71080;SDS011;58740;50.672;18.690;2024-03-22T10:32:24;9.90;;;4.70;;
71080;SDS011;58740;50.672;18.690;2024-03-22T10:34:56;13.50;;;5.10;;
71080;SDS011;58740;50.672;18.690;2024-03-22T10:37:30;11.30;;;5.90;;
71080;SDS011;58740;50.672;18.690;2024-03-22T10:40:05;17.70;;;10.00;;
71080;SDS011;58740;50.672;18.690;2024-03-22T10:42:40;11.20;;;5.40;;
71080;SDS011;58740;50.672;18.690;2024-03-22T10:45:13;10.20;;;4.70;;
71080;SDS011;58740;50.672;18.690;2024-03-22T10:47:46;9.70;;;5.30;;
71080;SDS011;58740;50.672;18.690;2024-03-22T10:50:20;11.50;;;5.10;;
71080;SDS011;58740;50.672;18.690;2024-03-22T10:52:57;9.40;;;4.40;;
71080;SDS011;58740;50.672;18.690;2024-03-22T10:55:35;9.60;;;3.70;;
71080;SDS011;58740;50.672;18.690;2024-03-22T10:58:16;11.30;;;4.70;;
71080;SDS011;58740;50.672;18.690;2024-03-22T11:00:54;11.40;;;4.80;;
71080;SDS011;58740;50.672;18.690;2024-03-22T11:03:27;14.00;;;6.00;;
71080;SDS011;58740;50.672;18.690;2024-03-22T11:06:00;12.70;;;5.60;;
71080;SDS011;58740;50.672;18.690;2024-03-22T11:08:33;10.50;;;5.00;;
71080;SDS011;58740;50.672;18.690;2024-03-22T11:11:12;12.60;;;5.60;;
71080;SDS011;58740;50.672;18.690;2024-03-22T11:13:46;11.70;;;5.80;;
71080;SDS011;58740;50.672;18.690;2024-03-22T11:16:19;15.90;;;5.40;;
71080;SDS011;58740;50.672;18.690;2024-03-22T11:18:52;10.80;;;5.10;;
71080;SDS011;58740;50.672;18.690;2024-03-22T11:21:25;16.20;;;7.00;;
71080;SDS011;58740;50.672;18.690;2024-03-22T11:24:01;12.60;;;6.20;;
71080;SDS011;58740;50.672;18.690;2024-03-22T11:26:34;9.00;;;3.90;;
71080;SDS011;58740;50.672;18.690;2024-03-22T11:29:07;10.30;;;4.80;;
71080;SDS011;58740;50.672;18.690;2024-03-22T11:31:40;9.60;;;4.20;;
71080;SDS011;58740;50.672;18.690;2024-03-22T11:34:12;10.90;;;5.00;;
71080;SDS011;58740;50.672;18.690;2024-03-22T11:36:45;12.60;;;5.10;;
71080;SDS011;58740;50.672;18.690;2024-03-22T11:39:19;11.60;;;6.30;;
71080;SDS011;58740;50.672;18.690;2024-03-22T11:41:52;14.50;;;7.10;;
71080;SDS011;58740;50.672;18.690;2024-03-22T11:44:26;10.80;;;5.80;;
71080;SDS011;58740;50.672;18.690;2024-03-22T11:46:59;12.00;;;6.10;;
71080;SDS011;58740;50.672;18.690;2024-03-22T11:49:32;12.30;;;8.10;;
71080;SDS011;58740;50.672;18.690;2024-03-22T11:52:07;12.10;;;7.00;;
71080;SDS011;58740;50.672;18.690;2024-03-22T11:54:40;16.20;;;8.60;;
71080;SDS011;58740;50.672;18.690;2024-03-22T11:57:13;11.00;;;5.90;;
71080;SDS011;58740;50.672;18.690;2024-03-22T11:59:46;10.90;;;5.70;;
71080;SDS011;58740;50.672;18.690;2024-03-22T12:02:40;12.40;;;5.90;;
71080;SDS011;58740;50.672;18.690;2024-03-22T12:05:14;15.20;;;6.40;;
71080;SDS011;58740;50.672;18.690;2024-03-22T12:07:50;10.70;;;5.60;;
71080;SDS011;58740;50.672;18.690;2024-03-22T12:10:23;9.20;;;4.50;;
71080;SDS011;58740;50.672;18.690;2024-03-22T12:12:56;10.60;;;5.60;;
71080;SDS011;58740;50.672;18.690;2024-03-22T12:15:30;11.20;;;5.50;;
71080;SDS011;58740;50.672;18.690;2024-03-22T12:18:03;10.70;;;5.40;;
71080;SDS011;58740;50.672;18.690;2024-03-22T12:20:37;13.50;;;6.10;;
71080;SDS011;58740;50.672;18.690;2024-03-22T12:23:13;11.90;;;5.50;;
71080;SDS011;58740;50.672;18.690;2024-03-22T12:25:45;10.50;;;5.20;;
71080;SDS011;58740;50.672;18.690;2024-03-22T12:28:18;10.60;;;5.30;;
71080;SDS011;58740;50.672;18.690;2024-03-22T12:30:51;16.20;;;10.60;;
71080;SDS011;58740;50.672;18.690;2024-03-22T12:33:24;12.50;;;6.50;;
71080;SDS011;58740;50.672;18.690;2024-03-22T12:35:57;12.30;;;5.90;;
71080;SDS011;58740;50.672;18.690;2024-03-22T12:38:30;8.70;;;4.40;;
71080;SDS011;58740;50.672;18.690;2024-03-22T12:41:02;8.10;;;3.70;;
71080;SDS011;58740;50.672;18.690;2024-03-22T12:43:35;9.30;;;4.90;;
71080;SDS011;58740;50.672;18.690;2024-03-22T12:46:27;9.00;;;4.50;;
71080;SDS011;58740;50.672;18.690;2024-03-22T12:49:00;10.40;;;5.70;;
71080;SDS011;58740;50.672;18.690;2024-03-22T12:51:36;10.50;;;5.30;;
71080;SDS011;58740;50.672;18.690;2024-03-22T12:54:09;12.30;;;6.30;;
71080;SDS011;58740;50.672;18.690;2024-03-22T12:56:44;12.30;;;5.90;;
71080;SDS011;58740;50.672;18.690;2024-03-22T12:59:18;13.80;;;6.70;;
71080;SDS011;58740;50.672;18.690;2024-03-22T13:01:51;12.80;;;6.30;;
71080;SDS011;58740;50.672;18.690;2024-03-22T13:04:25;13.40;;;6.40;;
71080;SDS011;58740;50.672;18.690;2024-03-22T13:06:58;12.30;;;6.10;;
71080;SDS011;58740;50.672;18.690;2024-03-22T13:09:31;8.90;;;4.50;;
71080;SDS011;58740;50.672;18.690;2024-03-22T13:12:04;10.70;;;5.50;;
71080;SDS011;58740;50.672;18.690;2024-03-22T13:14:38;11.00;;;5.60;;
71080;SDS011;58740;50.672;18.690;2024-03-22T13:17:10;11.70;;;5.50;;
71080;SDS011;58740;50.672;18.690;2024-03-22T13:19:45;11.30;;;5.20;;
71080;SDS011;58740;50.672;18.690;2024-03-22T13:22:17;14.00;;;6.20;;
71080;SDS011;58740;50.672;18.690;2024-03-22T13:24:50;10.40;;;6.20;;
71080;SDS011;58740;50.672;18.690;2024-03-22T13:27:23;14.30;;;7.80;;
71080;SDS011;58740;50.672;18.690;2024-03-22T13:29:57;15.70;;;7.20;;
71080;SDS011;58740;50.672;18.690;2024-03-22T13:32:30;11.40;;;6.10;;
71080;SDS011;58740;50.672;18.690;2024-03-22T13:35:02;13.20;;;7.30;;
71080;SDS011;58740;50.672;18.690;2024-03-22T13:37:36;11.80;;;6.00;;
71080;SDS011;58740;50.672;18.690;2024-03-22T13:40:10;9.00;;;4.70;;
71080;SDS011;58740;50.672;18.690;2024-03-22T13:42:45;10.40;;;6.10;;
71080;SDS011;58740;50.672;18.690;2024-03-22T13:45:17;10.00;;;5.30;;
71080;SDS011;58740;50.672;18.690;2024-03-22T13:47:50;8.80;;;5.60;;
71080;SDS011;58740;50.672;18.690;2024-03-22T13:50:23;8.60;;;5.50;;
71080;SDS011;58740;50.672;18.690;2024-03-22T13:52:55;11.30;;;5.80;;
71080;SDS011;58740;50.672;18.690;2024-03-22T13:55:28;12.40;;;5.90;;
71080;SDS011;58740;50.672;18.690;2024-03-22T13:58:02;13.80;;;6.30;;
71080;SDS011;58740;50.672;18.690;2024-03-22T14:00:45;13.80;;;6.70;;
71080;SDS011;58740;50.672;18.690;2024-03-22T14:03:18;11.20;;;6.00;;
71080;SDS011;58740;50.672;18.690;2024-03-22T14:05:50;10.20;;;5.20;;
71080;SDS011;58740;50.672;18.690;2024-03-22T14:08:23;10.20;;;5.30;;
71080;SDS011;58740;50.672;18.690;2024-03-22T14:10:56;11.70;;;6.10;;
71080;SDS011;58740;50.672;18.690;2024-03-22T14:13:28;14.50;;;6.80;;
71080;SDS011;58740;50.672;18.690;2024-03-22T14:16:01;11.50;;;6.10;;
71080;SDS011;58740;50.672;18.690;2024-03-22T14:18:34;13.20;;;6.20;;
71080;SDS011;58740;50.672;18.690;2024-03-22T14:21:06;13.00;;;6.40;;
71080;SDS011;58740;50.672;18.690;2024-03-22T14:23:39;11.40;;;6.80;;
71080;SDS011;58740;50.672;18.690;2024-03-22T14:26:11;12.20;;;6.80;;
71080;SDS011;58740;50.672;18.690;2024-03-22T14:28:44;15.30;;;7.50;;
71080;SDS011;58740;50.672;18.690;2024-03-22T14:31:20;11.60;;;6.80;;
71080;SDS011;58740;50.672;18.690;2024-03-22T14:33:53;15.10;;;7.30;;
71080;SDS011;58740;50.672;18.690;2024-03-22T14:36:25;12.30;;;6.70;;
71080;SDS011;58740;50.672;18.690;2024-03-22T14:38:58;11.80;;;6.70;;
71080;SDS011;58740;50.672;18.690;2024-03-22T14:41:32;15.40;;;7.80;;
71080;SDS011;58740;50.672;18.690;2024-03-22T14:44:05;13.80;;;5.90;;
71080;SDS011;58740;50.672;18.690;2024-03-22T14:46:37;12.70;;;6.00;;
71080;SDS011;58740;50.672;18.690;2024-03-22T14:49:10;12.40;;;6.00;;
71080;SDS011;58740;50.672;18.690;2024-03-22T14:51:43;12.50;;;6.00;;